createdAt,value
2018-09-11T00:00:51.023Z,1.57
2018-09-11T00:03:19.656Z,1.60
2018-09-11T00:05:48.049Z,1.45
2018-09-11T00:08:16.204Z,1.45
2018-09-11T00:10:44.657Z,1.62
2018-09-11T00:13:13.077Z,1.75
2018-09-11T00:15:41.493Z,1.52
2018-09-11T00:18:09.961Z,1.50
2018-09-11T00:20:38.064Z,1.50
2018-09-11T00:23:06.588Z,1.47
2018-09-11T00:25:35.221Z,1.75
2018-09-11T00:28:03.653Z,1.27
2018-09-11T00:30:31.753Z,1.37
2018-09-11T00:33:00.189Z,1.55
2018-09-11T00:35:28.580Z,1.27
2018-09-11T00:37:57.036Z,1.30
2018-09-11T00:40:25.440Z,1.40
2018-09-11T00:42:53.592Z,1.30
2018-09-11T00:45:21.700Z,1.47
2018-09-11T00:47:50.143Z,1.75
2018-09-11T00:50:18.774Z,1.42
2018-09-11T00:52:47.200Z,1.30
2018-09-11T00:55:15.625Z,1.60
2018-09-11T00:57:44.048Z,1.32
2018-09-11T01:00:12.482Z,1.70
2018-09-11T01:02:40.901Z,1.50
2018-09-11T01:05:09.039Z,1.45
2018-09-11T01:07:37.438Z,1.37
2018-09-11T01:10:08.055Z,1.47
2018-09-11T01:12:36.475Z,1.47
2018-09-11T01:15:06.436Z,1.40
2018-09-11T01:17:34.848Z,1.62
2018-09-11T01:20:03.000Z,1.25
2018-09-11T01:22:31.602Z,1.37
2018-09-11T01:25:00.034Z,1.10
2018-09-11T01:27:28.548Z,1.30
2018-09-11T01:29:57.017Z,1.55
2018-09-11T01:32:25.483Z,1.30
2018-09-11T01:34:53.921Z,1.75
2018-09-11T01:37:22.320Z,1.50
2018-09-11T01:39:50.796Z,1.30
2018-09-11T01:42:19.216Z,1.40
2018-09-11T01:44:47.664Z,1.37
2018-09-11T01:47:15.769Z,1.40
2018-09-11T01:49:44.236Z,1.75
2018-09-11T01:52:12.706Z,1.27
2018-09-11T01:54:41.125Z,1.42
2018-09-11T01:57:09.544Z,1.45
2018-09-11T01:59:37.994Z,1.60
2018-09-11T02:02:06.433Z,1.40
2018-09-11T02:04:34.940Z,1.10
2018-09-11T02:07:03.370Z,1.37
2018-09-11T02:09:31.504Z,1.75
2018-09-11T02:11:59.909Z,1.67
2018-09-11T02:14:28.337Z,1.12
2018-09-11T02:16:56.463Z,1.20
2018-09-11T02:19:24.885Z,1.70
2018-09-11T02:21:53.285Z,1.75
2018-09-11T02:24:21.445Z,1.25
2018-09-11T02:26:49.859Z,1.47
2018-09-11T02:29:18.294Z,1.72
2018-09-11T02:31:46.707Z,1.65
2018-09-11T02:34:15.164Z,1.37
2018-09-11T02:36:43.313Z,1.82
2018-09-11T02:39:12.765Z,1.42
2018-09-11T02:41:41.213Z,2.67
2018-09-11T02:44:10.545Z,1.47
2018-09-11T02:46:39.241Z,1.50
2018-09-11T02:49:07.685Z,1.62
2018-09-11T02:51:36.278Z,1.65
2018-09-11T02:54:04.910Z,1.37
2018-09-11T02:56:33.038Z,1.65
2018-09-11T02:59:01.472Z,1.70
2018-09-11T03:01:29.914Z,1.65
2018-09-11T03:03:58.352Z,1.27
2018-09-11T03:06:28.381Z,1.80
2018-09-11T03:12:17.899Z,1.70
2018-09-11T03:14:46.441Z,1.45
2018-09-11T03:17:14.845Z,1.30
2018-09-11T03:19:43.264Z,1.57
2018-09-11T03:22:11.663Z,1.70
2018-09-11T03:24:40.087Z,1.57
2018-09-11T03:27:08.464Z,1.32
2018-09-11T03:29:36.569Z,1.55
2018-09-11T03:32:05.018Z,1.72
2018-09-11T03:34:33.124Z,1.98
2018-09-11T03:37:01.728Z,1.87
2018-09-11T03:39:30.125Z,1.55
2018-09-11T03:41:58.563Z,1.52
2018-09-11T03:44:26.665Z,1.67
2018-09-11T03:46:55.089Z,1.65
2018-09-11T03:49:23.224Z,1.55
2018-09-11T03:51:51.632Z,1.52
2018-09-11T03:54:20.023Z,1.60
2018-09-11T03:56:48.558Z,1.62
2018-09-11T03:59:16.991Z,1.40
2018-09-11T04:01:45.103Z,1.80
2018-09-11T04:04:13.251Z,1.45
2018-09-11T04:06:41.696Z,1.90
2018-09-11T04:09:11.989Z,1.82
2018-09-11T04:11:40.657Z,1.57
2018-09-11T04:14:09.057Z,1.90
2018-09-11T04:16:37.612Z,1.95
2018-09-11T04:19:06.089Z,1.72
2018-09-11T04:21:34.536Z,1.42
2018-09-11T04:24:03.026Z,1.25
2018-09-11T04:26:31.509Z,1.65
2018-09-11T04:28:59.659Z,1.90
2018-09-11T04:31:28.134Z,1.50
2018-09-11T04:33:56.577Z,1.90
2018-09-11T04:36:25.043Z,2.12
2018-09-11T04:38:53.128Z,1.77
2018-09-11T04:41:21.285Z,1.62
2018-09-11T04:43:49.858Z,1.80
2018-09-11T04:46:18.325Z,1.82
2018-09-11T04:48:46.917Z,1.70
2018-09-11T04:51:15.609Z,1.87
2018-09-11T04:53:43.712Z,1.98
2018-09-11T04:56:12.231Z,1.85
2018-09-11T04:58:40.581Z,2.00
2018-09-11T05:01:08.992Z,1.95
2018-09-11T05:03:37.454Z,2.00
2018-09-11T05:06:05.968Z,1.95
2018-09-11T05:08:34.409Z,1.82
2018-09-11T05:11:02.916Z,2.20
2018-09-11T05:13:31.330Z,2.17
2018-09-11T05:15:59.777Z,2.00
2018-09-11T05:18:28.228Z,1.80
2018-09-11T05:20:56.632Z,1.87
2018-09-11T05:23:25.074Z,1.80
2018-09-11T05:25:53.490Z,1.77
2018-09-11T05:28:21.933Z,1.62
2018-09-11T05:30:50.308Z,1.60
2018-09-11T05:33:18.744Z,1.60
2018-09-11T05:35:46.838Z,1.50
2018-09-11T05:38:15.053Z,1.92
2018-09-11T05:40:44.188Z,1.98
2018-09-11T05:43:12.654Z,1.77
2018-09-11T05:45:41.065Z,1.60
2018-09-11T05:48:09.492Z,2.33
2018-09-11T05:50:37.897Z,2.62
2018-09-11T05:53:06.368Z,2.52
2018-09-11T05:55:35.055Z,2.90
2018-09-11T05:58:03.490Z,3.65
2018-09-11T06:00:31.915Z,2.40
2018-09-11T06:03:00.364Z,2.35
2018-09-11T06:05:28.874Z,2.17
2018-09-11T06:07:57.332Z,1.87
2018-09-11T06:10:25.840Z,2.05
2018-09-11T06:12:54.264Z,2.00
2018-09-11T06:15:22.669Z,2.00
2018-09-11T06:17:51.121Z,2.40
2018-09-11T06:20:19.240Z,2.20
2018-09-11T06:22:47.648Z,1.85
2018-09-11T06:25:16.052Z,2.05
2018-09-11T06:27:44.464Z,1.52
2018-09-11T06:30:12.860Z,1.75
2018-09-11T06:32:41.496Z,1.50
2018-09-11T06:35:09.904Z,1.60
2018-09-11T06:37:38.423Z,1.85
2018-09-11T06:40:06.972Z,1.72
2018-09-11T06:42:35.460Z,1.60
2018-09-11T06:45:03.624Z,1.40
2018-09-11T06:47:32.043Z,1.27
2018-09-11T06:50:00.535Z,1.95
2018-09-11T06:52:28.936Z,1.72
2018-09-11T06:54:57.345Z,1.57
2018-09-11T06:57:25.863Z,1.47
2018-09-11T06:59:54.256Z,1.90
2018-09-11T07:02:22.668Z,1.70
2018-09-11T07:04:51.146Z,1.50
2018-09-11T07:07:19.584Z,1.30
2018-09-11T07:09:48.018Z,1.50
2018-09-11T07:12:16.413Z,1.87
2018-09-11T07:14:44.946Z,1.67
2018-09-11T07:17:13.280Z,1.87
2018-09-11T07:19:41.798Z,1.90
2018-09-11T07:22:10.237Z,1.65
2018-09-11T07:24:38.700Z,1.52
2018-09-11T07:27:07.126Z,1.85
2018-09-11T07:29:35.621Z,1.77
2018-09-11T07:32:04.033Z,1.65
2018-09-11T07:34:32.436Z,1.70
2018-09-11T07:37:00.548Z,1.55
2018-09-11T07:39:28.968Z,1.67
2018-09-11T07:41:57.372Z,1.80
2018-09-11T07:44:25.787Z,1.67
2018-09-11T07:46:54.167Z,1.55
2018-09-11T07:49:22.581Z,1.92
2018-09-11T07:51:51.072Z,1.92
2018-09-11T07:54:19.536Z,1.98
2018-09-11T07:56:47.658Z,2.02
2018-09-11T07:59:16.076Z,1.85
2018-09-11T08:01:44.509Z,1.90
2018-09-11T08:04:13.164Z,1.72
2018-09-11T08:06:41.613Z,1.92
2018-09-11T08:09:12.019Z,1.80
2018-09-11T08:11:40.525Z,1.80
2018-09-11T08:14:09.518Z,2.10
2018-09-11T08:16:37.962Z,1.60
2018-09-11T08:19:06.455Z,2.08
2018-09-11T08:21:34.901Z,1.65
2018-09-11T08:24:03.356Z,1.85
2018-09-11T08:26:31.784Z,1.90
2018-09-11T08:29:00.376Z,1.72
2018-09-11T08:31:28.808Z,2.00
2018-09-11T08:33:57.224Z,1.87
2018-09-11T08:36:25.888Z,2.47
2018-09-11T08:38:54.021Z,1.55
2018-09-11T08:41:22.468Z,2.12
2018-09-11T08:43:50.882Z,2.00
2018-09-11T08:46:19.328Z,1.80
2018-09-11T08:48:47.816Z,1.52
2018-09-11T08:51:16.261Z,1.70
2018-09-11T08:53:44.431Z,2.08
2018-09-11T08:56:12.848Z,1.72
2018-09-11T08:58:41.356Z,1.72
2018-09-11T09:01:09.940Z,1.98
2018-09-11T09:03:38.368Z,1.80
2018-09-11T09:06:06.523Z,1.77
2018-09-11T09:08:34.925Z,1.70
2018-09-11T09:11:03.369Z,1.95
2018-09-11T09:13:31.448Z,1.70
2018-09-11T09:16:00.185Z,1.85
2018-09-11T09:18:28.272Z,1.70
2018-09-11T09:20:56.440Z,1.55
2018-09-11T09:23:24.920Z,2.00
2018-09-11T09:25:53.359Z,1.80
2018-09-11T09:28:21.787Z,1.65
2018-09-11T09:30:50.221Z,1.75
2018-09-11T09:33:18.641Z,2.17
2018-09-11T09:35:47.056Z,1.70
2018-09-11T09:38:15.459Z,1.55
2018-09-11T09:40:43.900Z,1.80
2018-09-11T09:43:12.292Z,1.70
2018-09-11T09:45:41.013Z,1.77
2018-09-11T09:48:09.489Z,1.67
2018-09-11T09:50:37.902Z,1.40
2018-09-11T09:53:06.476Z,2.37
2018-09-11T09:55:34.946Z,1.52
2018-09-11T09:58:03.064Z,1.30
2018-09-11T10:00:36.692Z,1.52
2018-09-11T10:03:05.121Z,1.67
2018-09-11T10:05:33.541Z,1.90
2018-09-11T10:08:01.976Z,1.80
2018-09-11T10:10:30.376Z,1.60
2018-09-11T10:12:58.812Z,1.98
2018-09-11T10:15:27.236Z,1.80
2018-09-11T10:17:55.372Z,2.00
2018-09-11T10:20:23.921Z,1.80
2018-09-11T10:22:52.352Z,2.05
2018-09-11T10:25:20.837Z,1.87
2018-09-11T10:27:48.994Z,1.70
2018-09-11T10:30:17.400Z,2.00
2018-09-11T10:32:45.540Z,2.22
2018-09-11T10:35:14.045Z,1.87
2018-09-11T10:37:42.488Z,1.72
2018-09-11T10:40:10.876Z,1.40
2018-09-11T10:42:39.305Z,1.65
2018-09-11T10:45:07.807Z,1.50
2018-09-11T10:47:36.221Z,1.60
2018-09-11T10:50:04.777Z,1.45
2018-09-11T10:52:33.242Z,1.70
2018-09-11T10:55:01.632Z,1.60
2018-09-11T10:57:30.172Z,1.62
2018-09-11T10:59:58.585Z,1.62
2018-09-11T11:02:27.116Z,2.05
2018-09-11T11:04:55.244Z,1.62
2018-09-11T11:07:23.428Z,1.90
2018-09-11T11:09:51.512Z,1.70
2018-09-11T11:12:19.944Z,1.67
2018-09-11T11:14:48.322Z,1.80
2018-09-11T11:17:16.568Z,1.30
2018-09-11T11:19:45.026Z,1.70
2018-09-11T11:22:13.426Z,1.45
2018-09-11T11:24:41.861Z,1.50
2018-09-11T11:27:10.336Z,1.50
2018-09-11T11:29:38.713Z,1.70
2018-09-11T11:32:07.092Z,1.70
2018-09-11T11:34:35.529Z,1.62
2018-09-11T11:37:04.073Z,1.50
2018-09-11T11:39:32.461Z,1.27
2018-09-11T11:42:00.896Z,2.10
2018-09-11T11:44:30.213Z,1.60
2018-09-11T11:46:58.624Z,1.60
2018-09-11T11:49:27.089Z,1.52
2018-09-11T11:51:55.493Z,1.77
2018-09-11T11:54:23.623Z,1.75
2018-09-11T11:56:52.020Z,1.70
2018-09-11T11:59:20.444Z,2.05
2018-09-11T12:01:48.557Z,1.50
2018-09-11T12:04:17.010Z,1.72
2018-09-11T12:06:45.440Z,1.60
2018-09-11T12:09:14.639Z,1.57
2018-09-11T12:11:43.024Z,1.92
2018-09-11T12:14:11.491Z,2.30
2018-09-11T12:16:39.908Z,1.47
2018-09-11T12:19:08.049Z,1.72
2018-09-11T12:21:36.460Z,1.75
2018-09-11T12:24:04.959Z,1.85
2018-09-11T12:26:33.362Z,2.05
2018-09-11T12:29:01.781Z,1.82
2018-09-11T12:31:30.184Z,1.62
2018-09-11T12:33:58.628Z,1.55
2018-09-11T12:36:27.020Z,1.65
2018-09-11T12:38:55.477Z,1.70
2018-09-11T12:41:23.866Z,1.40
2018-09-11T12:43:52.337Z,1.87
2018-09-11T12:46:21.112Z,1.62
2018-09-11T12:48:49.154Z,1.75
2018-09-11T12:51:17.542Z,1.62
2018-09-11T12:53:45.969Z,1.75
2018-09-11T12:56:14.385Z,1.75
2018-09-11T12:58:42.772Z,1.60
2018-09-11T13:01:11.224Z,1.80
2018-09-11T13:03:39.652Z,2.05
2018-09-11T13:06:08.109Z,2.27
2018-09-11T13:08:36.635Z,1.50
2018-09-11T13:11:05.065Z,1.90
2018-09-11T13:13:33.500Z,2.08
2018-09-11T13:16:01.913Z,1.80
2018-09-11T13:18:30.337Z,1.67
2018-09-11T13:20:58.784Z,1.87
2018-09-11T13:23:27.195Z,1.47
2018-09-11T13:25:55.632Z,1.72
2018-09-11T13:28:23.731Z,1.50
2018-09-11T13:30:52.211Z,1.70
2018-09-11T13:33:20.644Z,1.98
2018-09-11T13:35:49.183Z,2.02
2018-09-11T13:38:17.608Z,1.60
2018-09-11T13:40:46.064Z,1.60
2018-09-11T13:43:14.473Z,1.70
2018-09-11T13:45:42.889Z,1.70
2018-09-11T13:48:11.277Z,1.60
2018-09-11T13:50:39.712Z,1.75
2018-09-11T13:53:08.129Z,1.80
2018-09-11T13:55:36.548Z,1.70
2018-09-11T13:58:05.143Z,1.47
2018-09-11T14:00:33.580Z,1.67
2018-09-11T14:03:02.068Z,1.80
2018-09-11T14:05:30.512Z,1.80
2018-09-11T14:07:58.939Z,1.95
2018-09-11T14:10:27.393Z,1.62
2018-09-11T14:12:55.839Z,2.08
2018-09-11T14:15:24.255Z,1.52
2018-09-11T14:17:52.733Z,1.60
2018-09-11T14:20:21.124Z,1.50
2018-09-11T14:22:49.564Z,1.75
2018-09-11T14:25:17.977Z,1.60
2018-09-11T14:27:46.410Z,1.42
2018-09-11T14:30:14.850Z,1.70
2018-09-11T14:32:42.992Z,1.62
2018-09-11T14:35:11.419Z,1.52
2018-09-11T14:37:39.876Z,1.70
2018-09-11T14:40:07.983Z,1.22
2018-09-11T14:42:36.402Z,1.52
2018-09-11T14:45:04.937Z,1.55
2018-09-11T14:47:38.552Z,1.45
2018-09-11T14:50:07.155Z,1.62
2018-09-11T14:52:35.795Z,1.85
2018-09-11T14:55:04.264Z,1.37
2018-09-11T14:57:32.748Z,1.72
2018-09-11T15:00:01.152Z,1.40
2018-09-11T15:02:29.586Z,1.72
2018-09-11T15:04:58.122Z,1.60
2018-09-11T15:07:26.544Z,1.55
2018-09-11T15:09:55.046Z,1.22
2018-09-11T15:12:23.512Z,1.52
2018-09-11T15:14:51.957Z,1.55
2018-09-11T15:17:20.388Z,1.67
2018-09-11T15:19:48.744Z,1.40
2018-09-11T15:22:16.888Z,1.67
2018-09-11T15:24:45.328Z,1.47
2018-09-11T15:27:13.459Z,1.47
2018-09-11T15:29:41.838Z,1.67
2018-09-11T15:32:10.384Z,1.60
2018-09-11T15:34:38.880Z,1.30
2018-09-11T15:37:07.384Z,1.30
2018-09-11T15:39:35.782Z,1.30
2018-09-11T15:42:04.188Z,1.35
2018-09-11T15:44:32.624Z,1.70
2018-09-11T15:47:01.090Z,1.70
2018-09-11T15:49:29.528Z,1.50
2018-09-11T15:51:57.673Z,1.32
2018-09-11T15:54:26.106Z,1.22
2018-09-11T15:56:54.213Z,2.37
2018-09-11T15:59:22.677Z,1.30
2018-09-11T16:01:51.070Z,1.50
2018-09-11T16:04:19.368Z,1.60
2018-09-11T16:06:47.772Z,1.45
2018-09-11T16:09:16.181Z,1.60
2018-09-11T16:11:44.598Z,1.50
2018-09-11T16:14:13.031Z,1.77
2018-09-11T16:16:41.464Z,1.27
2018-09-11T16:19:09.903Z,1.42
2018-09-11T16:21:38.308Z,1.62
2018-09-11T16:24:06.842Z,1.32
2018-09-11T16:26:35.285Z,1.67
2018-09-11T16:29:05.700Z,1.20
2018-09-11T16:31:34.135Z,1.20
2018-09-11T16:34:02.649Z,1.80
2018-09-11T16:36:31.108Z,1.85
2018-09-11T16:38:59.611Z,1.67
2018-09-11T16:41:28.016Z,1.52
2018-09-11T16:43:56.661Z,1.77
2018-09-11T16:46:24.784Z,1.77
2018-09-11T16:48:53.215Z,1.57
2018-09-11T16:51:21.620Z,1.50
2018-09-11T16:53:50.044Z,1.75
2018-09-11T16:56:18.452Z,1.30
2018-09-11T16:58:46.602Z,1.70
2018-09-11T17:01:14.734Z,2.12
2018-09-11T17:03:43.210Z,1.80
2018-09-11T17:06:11.608Z,1.87
2018-09-11T17:08:39.757Z,1.98
2018-09-11T17:11:08.176Z,2.10
2018-09-11T17:13:36.621Z,2.12
2018-09-11T17:16:04.760Z,1.70
2018-09-11T17:18:33.179Z,1.50
2018-09-11T17:21:01.593Z,1.80
2018-09-11T17:23:30.004Z,1.57
2018-09-11T17:25:58.429Z,1.72
2018-09-11T17:28:26.829Z,1.47
2018-09-11T17:30:54.932Z,1.82
2018-09-11T17:33:23.352Z,1.80
2018-09-11T17:35:51.539Z,2.00
2018-09-11T17:38:19.976Z,2.60
2018-09-11T17:40:48.397Z,2.50
2018-09-11T17:43:16.798Z,2.40
2018-09-11T17:45:45.248Z,1.75
2018-09-11T17:48:13.701Z,2.30
2018-09-11T17:50:42.176Z,2.20
2018-09-11T17:53:10.282Z,2.47
2018-09-11T17:55:38.700Z,2.35
2018-09-11T17:58:07.108Z,1.80
2018-09-11T18:00:35.557Z,2.15
2018-09-11T18:03:04.114Z,2.22
2018-09-11T18:05:32.560Z,2.17
2018-09-11T18:08:00.967Z,2.42
2018-09-11T18:10:29.434Z,2.20
2018-09-11T18:12:57.840Z,2.20
2018-09-11T18:15:26.273Z,2.47
2018-09-11T18:17:54.684Z,2.35
2018-09-11T18:20:23.117Z,2.67
2018-09-11T18:22:51.513Z,2.10
2018-09-11T18:25:19.989Z,2.85
2018-09-11T18:27:48.453Z,2.90
2018-09-11T18:30:16.932Z,2.35
2018-09-11T18:32:45.475Z,2.62
2018-09-11T18:35:13.854Z,2.50
2018-09-11T18:37:41.976Z,3.05
2018-09-11T18:40:10.099Z,3.70
2018-09-11T18:42:38.547Z,3.75
2018-09-11T18:45:06.957Z,2.90
2018-09-11T18:47:35.415Z,3.05
2018-09-11T18:50:03.893Z,2.87
2018-09-11T18:52:32.281Z,2.75
2018-09-11T18:55:00.786Z,2.75
2018-09-11T18:57:29.260Z,2.70
2018-09-11T18:59:57.629Z,2.75
2018-09-11T19:02:26.061Z,2.60
2018-09-11T19:04:54.565Z,2.55
2018-09-11T19:07:23.033Z,2.98
2018-09-11T19:09:51.433Z,5.30
2018-09-11T19:12:19.919Z,3.05
2018-09-11T19:14:48.502Z,2.90
2018-09-11T19:17:16.996Z,3.22
2018-09-11T19:19:45.487Z,3.33
2018-09-11T19:22:14.764Z,3.42
2018-09-11T19:24:43.297Z,3.37
2018-09-11T19:27:11.731Z,3.00
2018-09-11T19:29:40.188Z,3.55
2018-09-11T19:32:08.628Z,3.40
2018-09-11T19:34:37.040Z,3.08
2018-09-11T19:37:05.496Z,3.15
2018-09-11T19:39:33.616Z,2.80
2018-09-11T19:42:02.044Z,2.80
2018-09-11T19:44:30.428Z,2.50
2018-09-11T19:46:58.837Z,2.92
2018-09-11T19:49:27.241Z,2.33
2018-09-11T19:51:55.697Z,2.40
2018-09-11T19:54:23.804Z,3.05
2018-09-11T19:56:51.965Z,2.87
2018-09-11T19:59:20.380Z,2.45
2018-09-11T20:01:48.536Z,2.70
2018-09-11T20:04:17.100Z,2.58
2018-09-11T20:06:45.213Z,2.85
2018-09-11T20:09:13.649Z,2.90
2018-09-11T20:11:42.484Z,2.52
2018-09-11T20:14:10.913Z,2.65
2018-09-11T20:16:39.336Z,3.42
2018-09-11T20:19:07.837Z,3.55
2018-09-11T20:21:36.273Z,2.90
2018-09-11T20:24:04.720Z,3.10
2018-09-11T20:26:33.133Z,3.10
2018-09-11T20:29:01.590Z,2.25
2018-09-11T20:31:29.697Z,2.52
2018-09-11T20:33:58.241Z,2.98
2018-09-11T20:36:26.647Z,2.47
2018-09-11T20:38:55.082Z,3.15
2018-09-11T20:41:23.504Z,2.87
2018-09-11T20:43:52.088Z,3.98
2018-09-11T20:46:20.514Z,3.12
2018-09-11T20:48:48.948Z,2.90
2018-09-11T20:51:17.502Z,3.10
2018-09-11T20:53:45.924Z,2.58
2018-09-11T20:56:14.304Z,2.90
2018-09-11T20:58:42.436Z,2.45
2018-09-11T21:01:10.849Z,2.70
2018-09-11T21:03:39.327Z,3.00
2018-09-11T21:06:07.704Z,2.90
2018-09-11T21:08:36.137Z,2.92
2018-09-11T21:11:04.532Z,2.85
2018-09-11T21:13:32.978Z,2.90
2018-09-11T21:16:01.375Z,3.30
2018-09-11T21:18:29.788Z,2.90
2018-09-11T21:20:58.252Z,2.95
2018-09-11T21:23:26.680Z,3.42
2018-09-11T21:25:55.080Z,3.10
2018-09-11T21:28:23.517Z,3.08
2018-09-11T21:30:51.612Z,3.40
2018-09-11T21:33:19.990Z,3.25
2018-09-11T21:35:48.405Z,3.35
2018-09-11T21:38:16.817Z,3.15
2018-09-11T21:40:44.943Z,3.12
2018-09-11T21:43:13.490Z,3.17
2018-09-11T21:45:41.918Z,3.15
2018-09-11T21:48:10.321Z,3.08
2018-09-11T21:50:38.443Z,3.50
2018-09-11T21:53:06.860Z,3.20
2018-09-11T21:55:35.014Z,3.45
2018-09-11T21:58:03.436Z,3.20
2018-09-11T22:00:31.565Z,2.87
2018-09-11T22:03:04.184Z,3.35
2018-09-11T22:05:32.942Z,2.92
2018-09-11T22:08:01.309Z,3.40
2018-09-11T22:10:29.732Z,2.92
2018-09-11T22:12:58.220Z,2.80
2018-09-11T22:15:26.651Z,2.52
2018-09-11T22:17:55.284Z,3.00
2018-09-11T22:20:23.413Z,2.92
2018-09-11T22:22:51.809Z,2.75
2018-09-11T22:25:20.270Z,2.98
2018-09-11T22:27:48.725Z,2.83
2018-09-11T22:30:17.152Z,3.00
2018-09-11T22:32:45.588Z,3.33
2018-09-11T22:35:14.012Z,2.80
2018-09-11T22:37:42.425Z,2.95
2018-09-11T22:40:10.940Z,2.87
2018-09-11T22:42:39.337Z,2.62
2018-09-11T22:45:07.792Z,2.83
2018-09-11T22:47:36.181Z,2.98
2018-09-11T22:50:04.851Z,2.80
2018-09-11T22:52:33.263Z,2.90
2018-09-11T22:55:01.679Z,2.58
2018-09-11T22:57:30.082Z,2.98
2018-09-11T22:59:58.509Z,3.00
2018-09-11T23:02:26.929Z,3.10
2018-09-11T23:04:55.380Z,3.25
2018-09-11T23:07:23.773Z,3.30
2018-09-11T23:09:52.208Z,3.00
2018-09-11T23:12:20.641Z,2.80
2018-09-11T23:14:48.784Z,2.70
2018-09-11T23:17:17.202Z,2.85
2018-09-11T23:19:45.735Z,2.90
2018-09-11T23:22:13.856Z,3.05
2018-09-11T23:24:42.253Z,2.95
2018-09-11T23:27:10.944Z,3.67
2018-09-11T23:29:39.028Z,3.17
2018-09-11T23:32:07.448Z,3.02
2018-09-11T23:34:35.844Z,3.22
2018-09-11T23:37:04.296Z,3.05
2018-09-11T23:39:32.909Z,3.10
2018-09-11T23:42:01.460Z,3.10
2018-09-11T23:44:29.608Z,3.17
2018-09-11T23:46:58.145Z,3.15
2018-09-11T23:49:26.564Z,2.92
2018-09-11T23:51:54.984Z,2.55
2018-09-11T23:54:23.394Z,2.67
2018-09-11T23:56:51.809Z,3.00
2018-09-11T23:59:20.211Z,3.00
